Tiempo atmosférico en la estación meteorológica de Manilva, Málaga (140 m.)



Fecha
DESCASC
Temp. máxima en grados centígrados (hora)
DESCASC
Temp. mínima en grados centígrados (hora)
DESCASC
Temp. media en grados centígrados
DESCASC
Racha de viento máxima en m/sg (hora)
DESCASC
Velocidad máxima media en intervalos de 10 minutos(hora)
DESCASC
Precipitaciones diarias en mm
DESCASC
Precipitaciones de 00:00 a 06:00 en mm
DESCASC
Precipitaciones de 06:00 a 12:00 en mm
DESCASC
Precipitaciones de 12:00 a 18:00 en mm
DESCASC
Precipitaciones de 18:00 a 24:00 en mm
DESCASC
22-01-2020 11.4 (17:10) 8.6 (08:40) 10 6.67 (11:10) 3.06 (01:50) 46.8 9.2 20.2 1.6 15.8
21-01-2020 14.4 (16:10) 7.1 (08:30) 10.7 7.5 (08:20) 5.28 (09:30) 1.8 0.6 0 0.2 1
20-01-2020 11.2 (12:50) 6.5 (09:10) 8.8 7.78 (01:30) 4.17 (13:50) 6.4 0.6 0 2.8 3
19-01-2020 16.4 (15:20) 8.7 (00:00) 12.5 17.78 (03:10) 11.67 (02:20) 0 0 0 0 0
18-01-2020 17.9 (14:00) 11.3 (00:00) 14.6 11.67 (23:59) 6.11 (23:59) 3.6 0 0 0.2 3.4
17-01-2020 19.8 (14:50) 10.8 (00:00) 15.3 8.06 (15:10) 5.56 (19:50) 0 0 0 0 0
16-01-2020 18.1 (15:50) 9 (00:00) 13.6 6.11 (22:50) 4.72 (23:10) 0 0 0 0 0
15-01-2020 20.2 (16:30) 10.1 (00:00) 15.2 6.67 (02:50) 4.72 (02:40) 0 0 0 0 0
14-01-2020 17.8 (15:50) 8.2 (00:00) 13 8.33 (15:00) 5 (21:40) 0 0 0 0 0
13-01-2020 16.2 (15:50) 9.4 (00:00) 12.8 6.11 (23:00) 4.17 (23:10) 0 0 0 0 0
12-01-2020 17.2 (15:50) 10.2 (00:00) 13.7 4.72 (13:20) 2.78 (13:20) 0 0 0 0 0
11-01-2020 16.4 (15:00) 10.2 (00:00) 13.3 5.28 (12:50) 3.33 (12:50) 0 0 0 0 0
10-01-2020 16.9 (15:20) 9.5 (00:00) 13.2 9.72 (14:00) 6.94 (14:20) 0 0 0 0 0
09-01-2020 16.1 (15:10) 10.2 (00:00) 13.2 6.39 (23:20) 4.72 (23:20) 0 0 0 0 0
08-01-2020 16.8 (16:00) 8.1 (00:00) 12.4 4.17 (06:40) 3.33 (06:40) 0 0 0 0 0
07-01-2020 15.3 (15:50) 9.3 (00:00) 12.3 6.39 (12:50) 3.61 (11:10) 0 0 0 0 0
06-01-2020 15.4 (15:40) 10.8 (00:00) 13.1 7.5 (11:20) 4.72 (12:10) 0 0 0 0 0
05-01-2020 13.8 (12:00) 10.4 (00:00) 12.1 10 (13:00) 6.11 (04:50) 0 0 0 0 0
04-01-2020 15.4 (14:30) 9.7 (00:00) 12.5 10.28 (23:10) 6.11 (22:40) 0 0 0 0 0
03-01-2020 18.7 (15:50) 9.6 (00:00) 14.2 5.83 (17:20) 4.17 (17:20) 0 0 0 0 0
02-01-2020 16.5 (15:20) 10.7 (00:00) 13.6 5.83 (11:40) 2.78 (11:10) 0 0 0 0 0
01-01-2020 16.7 (16:20) 10.2 (00:00) 13.5 6.39 (05:40) 4.17 (04:20) 0 0 0 0 0
31-12-2019 14.2 (16:50) 11.6 (00:00) 12.9 11.11 (13:40) 6.67 (16:50) 0 0 0 0 0
30-12-2019 -- (--) -- (--) -- -- (--) -- (--) -- 0 0 -- 0
29-12-2019 14.3 (13:20) 12.1 (00:00) 13.2 11.94 (13:40) 7.5 (12:30) 0 0 0 0 0
28-12-2019 15.5 (15:10) 12.7 (00:00) 14.1 10 (12:00) 5.83 (12:00) 0 0 0 0 0
27-12-2019 16.1 (14:00) 12.3 (00:00) 14.2 11.94 (12:50) 7.22 (12:20) 0 0 0 0 0

Gráficas

Temp. máximas Temp. mínimas Temp. medias Precipitaciones Rachas de viento máximas Velocidades máximas media en intervalos de 10 minutos

Datos horarios

Fecha y hora oficial Temperatura (ºC) Velocidad del viento (km/h) Dirección del viento Racha (km/h) Dirección de racha Precipitación (mm) Presión (hPa) Tendencia (hPa) Humedad (%)
2020-01-25 23:00:00 9.9 12 Noroeste 18 Noroeste 0 -- -- 96
2020-01-25 22:00:00 10.2 6 Noroeste 9 Noroeste 0.4 -- -- 95
2020-01-25 21:00:00 10.6 0 Calma 5 Nordeste 1.8 -- -- 95
2020-01-25 20:00:00 10.7 5 Nordeste 6 Nordeste 1 -- -- 95
2020-01-25 19:00:00 10.7 4 Noroeste 14 Sudoeste 0.8 -- -- 94
2020-01-25 18:00:00 11.1 8 Sudoeste 14 Sudoeste 2.4 -- -- 93
2020-01-25 17:00:00 11.3 3 Oeste 25 Oeste 4 -- -- 90
2020-01-25 16:00:00 12.8 14 Oeste 26 Oeste 0 -- -- 78
2020-01-25 15:00:00 14 18 Sudoeste 34 Oeste 0 -- -- 73
2020-01-25 14:00:00 13.1 13 Sudoeste 25 Sudoeste 0 -- -- 80
2020-01-25 13:00:00 11.8 16 Sudoeste 31 Sudoeste 0.2 -- -- 87
2020-01-25 12:00:00 11.9 10 Sudoeste 30 Sudoeste 1.8 -- -- 89
2020-01-25 11:00:00 12.5 18 Sudoeste 30 Sur 0 -- -- 81
2020-01-25 10:00:00 11.4 2 Nordeste 8 Este 0 -- -- 86
2020-01-25 09:00:00 11 0 Calma 12 Sudoeste 0 -- -- 89
2020-01-25 08:00:00 11 3 Este 9 Nordeste 0 -- -- 92
2020-01-25 07:00:00 10.9 7 Este 14 Este 0 -- -- 93
2020-01-25 06:00:00 10.8 5 Nordeste 11 Noroeste 0.2 -- -- 94
2020-01-25 05:00:00 11.4 9 Noroeste 21 Oeste 2.2 -- -- 94
2020-01-25 04:00:00 11.3 5 Sudoeste 30 Oeste 1.4 -- -- 95
2020-01-25 03:00:00 11.5 5 Norte 16 Oeste 4.2 -- -- 95
2020-01-25 02:00:00 11.6 2 Norte 12 Norte 5 -- -- 94
2020-01-25 01:00:00 12 3 Sudoeste 14 Sudoeste 0.6 -- -- 92
2020-01-25 00:00:00 12 3 Norte 20 Sudoeste 1.4 -- -- 92
2020-01-24 23:00:00 11.9 11 Oeste 23 Sudoeste 0 -- -- 92
2020-01-24 22:00:00 11.8 13 Sudoeste 22 Sudoeste 0.6 -- -- 95
2020-01-24 21:00:00 11.9 6 Nordeste 10 Nordeste 2.6 -- -- 95
2020-01-24 20:00:00 11.7 5 Nordeste 11 Nordeste 0.6 -- -- 94
2020-01-24 19:00:00 11.7 5 Nordeste 17 Este 0 -- -- 93
2020-01-24 18:00:00 11.8 5 Nordeste 16 Sudeste 8.4 -- -- 92
2020-01-24 17:00:00 12.4 11 Sudeste 27 Sudeste 2.8 -- -- 92
2020-01-24 16:00:00 13.3 15 Sudeste 26 Sudeste 0 -- -- 93
2020-01-24 15:00:00 12.9 14 Sudeste 35 Este 0.4 -- -- 94
2020-01-24 14:00:00 12.5 15 Sudeste 30 Este 0.2 -- -- 90
2020-01-24 13:00:00 12.3 11 Sudeste 29 Sudeste 0.2 -- -- 87
2020-01-24 12:00:00 11.8 11 Sudeste 26 Sudeste 0 -- -- 91
2020-01-24 11:00:00 10.9 6 Este 17 Nordeste 0.2 -- -- 95
2020-01-24 10:00:00 10.5 4 Nordeste 10 Este 0.6 -- -- 95
2020-01-24 09:00:00 10.4 3 Nordeste 8 Este 0.2 -- -- 95
2020-01-24 08:00:00 10.5 5 Este 11 Este 0.2 -- -- 95
2020-01-24 07:00:00 10.6 4 Nordeste 10 Este 0 -- -- 96
2020-01-24 06:00:00 10.5 4 Nordeste 10 Este 0.2 -- -- 95
2020-01-24 05:00:00 10.4 5 Norte 10 Oeste 0 -- -- 95
2020-01-24 04:00:00 10.2 0 Calma 7 Sudoeste 1.2 -- -- 95
2020-01-24 03:00:00 10.2 3 Norte 6 Nordeste 0.4 -- -- 95
2020-01-24 02:00:00 10.3 4 Nordeste 7 Nordeste 1.2 -- -- 95
2020-01-24 01:00:00 10.2 4 Norte 9 Noroeste 1.4 -- -- 94
2020-01-24 00:00:00 10.4 6 Noroeste 12 Oeste 0.2 -- -- 93
2020-01-23 23:00:00 10.1 9 Oeste 22 Oeste 1.2 -- -- 94
2020-01-23 22:00:00 10.5 14 Noroeste 30 Oeste 1.8 -- -- 94
2020-01-23 21:00:00 10.4 4 Norte 11 Nordeste 0.2 -- -- 94
2020-01-23 20:00:00 9.6 8 Nordeste 60 Sudoeste 9 -- -- 92
2020-01-23 19:00:00 13.5 12 Sudeste 31 Sudeste 0.4 -- -- 92
2020-01-23 18:00:00 13.5 13 Sur 31 Sur 0 -- -- 91
2020-01-23 17:00:00 13.5 13 Sudeste 24 Sudeste 0.2 -- -- 90
2020-01-23 16:00:00 13.7 9 Sudeste 23 Este 0 -- -- 87
2020-01-23 15:00:00 14.3 9 Sudeste 18 Este 0 -- -- 76
2020-01-23 14:00:00 14.2 7 Sudeste 13 Sudeste 0 -- -- 72
2020-01-23 13:00:00 14.1 4 Este 10 Este 0 -- -- 75
2020-01-23 12:00:00 12.3 5 Este 8 Nordeste 0 -- -- 88
2020-01-23 11:00:00 11.4 4 Nordeste 8 Nordeste 0.2 -- -- 95
2020-01-23 10:00:00 10.8 3 Este 17 Oeste 0.6 -- -- 95
2020-01-23 09:00:00 10.7 3 Nordeste 5 Nordeste 0 -- -- 94
2020-01-23 08:00:00 10.7 5 Sudeste 10 Sudoeste 2.2 -- -- 94
2020-01-23 07:00:00 10.4 6 Norte 8 Norte 0 -- -- 94
2020-01-23 06:00:00 10.3 3 Nordeste 8 Nordeste 0 -- -- 94
2020-01-23 05:00:00 10 5 Nordeste 8 Norte 0 -- -- 94
2020-01-23 04:00:00 10.1 7 Nordeste 11 Este 0.8 -- -- 94
2020-01-23 03:00:00 9.9 5 Nordeste 12 Nordeste 1.8 -- -- 94
2020-01-23 02:00:00 10 6 Norte 9 Este 1.6 -- -- 94
2020-01-23 01:00:00 10.1 4 Nordeste 11 Nordeste 0.6 -- -- 94
2020-01-23 00:00:00 10.3 6 Sudeste 12 Este 0.4 -- -- 94
2020-01-22 23:00:00 10.1 3 Este 10 Norte 0.2 -- -- 94
2020-01-22 22:00:00 10.1 4 Nordeste 10 Sudeste 0.6 -- -- 93
2020-01-22 21:00:00 9.8 9 Oeste 17 Oeste 14 -- -- 91
2020-01-22 20:00:00 10.6 4 Este 17 Este 0.6 -- -- 85
2020-01-22 19:00:00 10.7 4 Nordeste 13 Este 0 -- -- 83
2020-01-22 18:00:00 11.1 6 Sudeste 18 Sudeste 0 -- -- 81
2020-01-22 17:00:00 11.3 4 Sudeste 18 Este 0 -- -- 77
2020-01-22 16:00:00 11 6 Sudeste 19 Sudeste 0 -- -- 85
2020-01-22 15:00:00 10.6 6 Este 17 Este 0 -- -- 88
2020-01-22 14:00:00 9.9 4 Nordeste 21 Sudeste 1.6 -- -- 93
2020-01-22 13:00:00 10 10 Sur 17 Sudeste 0 -- -- 89
2020-01-22 12:00:00 9.3 3 Nordeste 24 Norte 0.6 -- -- 94
2020-01-22 11:00:00 8.7 10 Este 22 Nordeste 8 -- -- 92
2020-01-22 10:00:00 8.9 5 Nordeste 10 Nordeste 5.8 -- -- 93
2020-01-22 09:00:00 8.6 3 Norte 7 Norte 2.2 -- -- 94
2020-01-22 08:00:00 8.9 5 Nordeste 10 Nordeste 3 -- -- 94
2020-01-22 07:00:00 8.9 4 Norte 14 Nordeste 0.6 -- -- 94
2020-01-22 06:00:00 8.9 7 Norte 12 Este 1.4 -- -- 93
2020-01-22 05:00:00 9.1 5 Nordeste 9 Nordeste 1.2 -- -- 93
2020-01-22 04:00:00 8.9 4 Nordeste 9 Norte 0.6 -- -- 93
2020-01-22 03:00:00 9 5 Este 13 Norte 6 -- -- 91
2020-01-22 02:00:00 9.7 7 Este 23 Sudeste 0 -- -- 89
2020-01-22 01:00:00 9.7 2 Nordeste 10 Este 0 -- -- 92
2020-01-22 00:00:00 9.9 6 Nordeste 21 Nordeste 1 -- -- 90
2020-01-21 23:00:00 10.2 2 Nordeste 16 Nordeste 0 -- -- 88
2020-01-21 22:00:00 10.5 3 Nordeste 8 Sudeste 0 -- -- 84
2020-01-21 21:00:00 10.9 3 Nordeste 8 Oeste 0 -- -- 75
2020-01-21 20:00:00 11.2 7 Oeste 15 Oeste 0 -- -- 71
2020-01-21 19:00:00 11.4 6 Oeste 22 Oeste 0 -- -- 71
2020-01-21 18:00:00 12.2 12 Oeste 21 Oeste 0 -- -- 68
2020-01-21 17:00:00 13.5 8 Oeste 18 Oeste 0 -- -- 63
2020-01-21 16:00:00 14.3 9 Noroeste 21 Oeste 0 -- -- 59
2020-01-21 15:00:00 13.6 10 Oeste 24 Sudoeste 0 -- -- 60
2020-01-21 14:00:00 13.9 13 Oeste 25 Oeste 0.2 -- -- 58
2020-01-21 13:00:00 13.7 12 Noroeste 22 Noroeste 0 -- -- 60
2020-01-21 12:00:00 12 11 Noroeste 21 Oeste 0 -- -- 63
2020-01-21 11:00:00 10.2 13 Noroeste 22 Oeste 0 -- -- 69
2020-01-21 10:00:00 8.4 19 Noroeste 27 Noroeste 0 -- -- 76
2020-01-21 09:00:00 7.1 19 Noroeste 27 Noroeste 0 -- -- 81
2020-01-21 08:00:00 7.8 12 Noroeste 18 Noroeste 0 -- -- 80
2020-01-21 07:00:00 7.5 11 Noroeste 17 Noroeste 0 -- -- 81
2020-01-21 06:00:00 7.3 11 Noroeste 15 Noroeste 0 -- -- 83
2020-01-21 05:00:00 7.4 9 Noroeste 12 Noroeste 0 -- -- 88
2020-01-21 04:00:00 7.6 9 Noroeste 12 Noroeste 0 -- -- 90
2020-01-21 03:00:00 8.2 6 Norte 11 Noroeste 0 -- -- 92
2020-01-21 02:00:00 8.5 4 Norte 8 Norte 0 -- -- 91
2020-01-21 01:00:00 8.5 4 Norte 8 Norte 0.6 -- -- 91
2020-01-21 00:00:00 9 3 Norte 22 Sudeste 1.8 -- -- 90
2020-01-20 23:00:00 10 13 Sudeste 23 Sudeste 1.2 -- -- 85
2020-01-20 22:00:00 9.5 3 Este 10 Nordeste 0 -- -- 74
2020-01-20 21:00:00 9 3 Norte 8 Norte 0 -- -- 78
2020-01-20 20:00:00 8.7 4 Norte 5 Norte 0 -- -- 82
2020-01-20 19:00:00 8.6 0 Calma 8 Este 0 -- -- 83
2020-01-20 18:00:00 8.8 0 Calma 6 Este 0.2 -- -- 86
2020-01-20 17:00:00 8.9 3 Nordeste 11 Nordeste 0.6 -- -- 87
2020-01-20 16:00:00 8.7 7 Nordeste 12 Norte 1.2 -- -- 87
2020-01-20 15:00:00 9.1 4 Este 17 Este 0.8 -- -- 82
2020-01-20 14:00:00 10.2 9 Sudeste 23 Sudeste 0 -- -- 73
2020-01-20 13:00:00 11.1 6 Sudeste 13 Sudeste 0 -- -- 60
2020-01-20 12:00:00 10.4 2 Sudoeste 12 Noroeste 0 -- -- 61
2020-01-20 11:00:00 9 8 Noroeste 14 Noroeste 0 -- -- 67
2020-01-20 10:00:00 7.5 10 Noroeste 17 Noroeste 0 -- -- 72
2020-01-20 09:00:00 6.7 5 Norte 9 Noroeste 0 -- -- 71
2020-01-20 08:00:00 7.3 4 Norte 12 Norte 0 -- -- 67
2020-01-20 07:00:00 7.1 6 Noroeste 15 Noroeste 0 -- -- 74
2020-01-20 06:00:00 8.1 5 Noroeste 10 Nordeste 0 -- -- 74
2020-01-20 05:00:00 8.3 6 Noroeste 15 Norte 0 -- -- 74
2020-01-20 04:00:00 8.7 0 Calma 8 Norte 0.2 -- -- 72
2020-01-20 03:00:00 8.5 7 Noroeste 13 Noroeste 0 -- -- 78
2020-01-20 02:00:00 9.3 5 Nordeste 28 Sudeste 0.4 -- -- 74
2020-01-20 01:00:00 9.7 6 Este 14 Sudeste 0 -- -- 60
2020-01-20 00:00:00 8.7 4 Norte 14 Noroeste 0 -- -- 67
2020-01-19 23:00:00 9.7 3 Noroeste 21 Norte 0 -- -- 63
2020-01-19 22:00:00 10.7 15 Norte 40 Norte 0 -- -- 61
2020-01-19 21:00:00 10.8 19 Norte 37 Norte 0 -- -- 61
2020-01-19 20:00:00 10.9 8 Noroeste 30 Norte 0 -- -- 65
2020-01-19 19:00:00 11.4 12 Norte 41 Nordeste 0 -- -- 66
2020-01-19 18:00:00 13.1 18 Norte 28 Nordeste 0 -- -- 55
2020-01-19 17:00:00 14 17 Nordeste 33 Nordeste 0 -- -- 53
2020-01-19 16:00:00 15.9 10 Norte 37 Norte 0 -- -- 51
2020-01-19 15:00:00 15.6 17 Norte 35 Norte 0 -- -- 51
2020-01-19 14:00:00 14.9 17 Norte 36 Norte 0 -- -- 57
2020-01-19 13:00:00 14.5 21 Norte 35 Noroeste 0 -- -- 64
2020-01-19 12:00:00 13.5 19 Noroeste 28 Noroeste 0 -- -- 68
2020-01-19 11:00:00 11.5 8 Oeste 33 Oeste 0 -- -- 77
2020-01-19 10:00:00 11 16 Noroeste 36 Norte 0 -- -- 78
2020-01-19 09:00:00 10.3 17 Noroeste 35 Noroeste 0 -- -- 77
2020-01-19 08:00:00 10.6 14 Noroeste 37 Oeste 0 -- -- 78
2020-01-19 07:00:00 11.4 16 Noroeste 44 Noroeste 0 -- -- 77
2020-01-19 06:00:00 12 27 Norte 51 Norte 0 -- -- 77
2020-01-19 05:00:00 12.1 22 Norte 46 Norte 0 -- -- 80
2020-01-19 04:00:00 12.3 21 Noroeste 64 Norte 0 -- -- 78
2020-01-19 03:00:00 13.3 32 Norte 62 Norte 0 -- -- 78
2020-01-19 02:00:00 14.7 35 Norte 53 Norte 0 -- -- 88
2020-01-19 01:00:00 15.5 24 Oeste 42 Oeste 0 -- -- 93
2020-01-19 00:00:00 15.4 22 Noroeste 42 Oeste 0.2 -- -- 94
2020-01-18 23:00:00 15.4 9 Oeste 19 Oeste 0.2 -- -- 96
2020-01-18 22:00:00 15 7 Oeste 22 Oeste 1 -- -- 96
2020-01-18 21:00:00 14.8 13 Oeste 22 Oeste 0.4 -- -- 95
2020-01-18 20:00:00 14.6 0 Calma 14 Oeste 0.4 -- -- 94
2020-01-18 19:00:00 14.7 11 Oeste 23 Oeste 1.2 -- -- 91
2020-01-18 18:00:00 15.4 10 Noroeste 28 Oeste 0 -- -- 85
2020-01-18 17:00:00 15.9 15 Oeste 31 Noroeste 0.2 -- -- 82
2020-01-18 16:00:00 17.1 13 Oeste 30 Oeste 0 -- -- 74
2020-01-18 15:00:00 17.4 12 Noroeste 22 Oeste 0 -- -- 72
2020-01-18 14:00:00 17.9 14 Noroeste 24 Noroeste 0 -- -- 71
2020-01-18 13:00:00 16 14 Noroeste 27 Noroeste 0 -- -- 75
2020-01-18 12:00:00 14.4 18 Noroeste 26 Norte 0 -- -- 78
2020-01-18 11:00:00 14 13 Noroeste 21 Noroeste 0 -- -- 71
2020-01-18 10:00:00 13.2 10 Norte 15 Norte 0 -- -- 60
2020-01-18 09:00:00 12.1 5 Noroeste 10 Noroeste 0 -- -- 75
2020-01-18 08:00:00 12 0 Calma 5 Noroeste 0 -- -- 76
2020-01-18 07:00:00 12.1 4 Noroeste 6 Noroeste 0 -- -- 74
2020-01-18 06:00:00 12.9 3 Nordeste 9 Nordeste 0 -- -- 67
2020-01-18 05:00:00 11.9 6 Norte 17 Noroeste 0 -- -- 67
2020-01-18 04:00:00 11.9 4 Norte 26 Noroeste 0 -- -- 63
2020-01-18 03:00:00 11.7 19 Noroeste 29 Noroeste 0 -- -- 67
2020-01-18 02:00:00 12.1 8 Norte 27 Noroeste 0 -- -- 68
2020-01-18 01:00:00 12.5 14 Noroeste 27 Noroeste 0 -- -- 73
2020-01-18 00:00:00 12.8 12 Noroeste 18 Noroeste 0 -- -- 75
2020-01-17 23:00:00 13.2 12 Noroeste 17 Norte 0 -- -- 77
2020-01-17 22:00:00 13.7 13 Norte 22 Noroeste 0 -- -- 80
2020-01-17 21:00:00 14.5 12 Norte 23 Noroeste 0 -- -- 79
2020-01-17 20:00:00 14.5 19 Norte 25 Noroeste 0 -- -- 82
2020-01-17 19:00:00 15.3 14 Noroeste 24 Noroeste 0 -- -- 79
2020-01-17 18:00:00 17.1 15 Noroeste 27 Noroeste 0 -- -- 72
2020-01-17 17:00:00 18.4 19 Noroeste 28 Noroeste 0 -- -- 64
2020-01-17 16:00:00 19.4 18 Noroeste 29 Oeste 0 -- -- 59
2020-01-17 15:00:00 19.8 15 Noroeste 27 Noroeste 0 -- -- 61
2020-01-17 14:00:00 19 13 Noroeste 25 Oeste 0 -- -- 65
2020-01-17 13:00:00 17.3 18 Noroeste 26 Noroeste 0 -- -- 71
2020-01-17 12:00:00 16.4 14 Noroeste 23 Noroeste 0 -- -- 67
2020-01-17 11:00:00 14.4 10 Noroeste 18 Noroeste 0 -- -- 59
2020-01-17 10:00:00 13.5 11 Noroeste 16 Noroeste 0 -- -- 63
2020-01-17 09:00:00 11.2 10 Noroeste 23 Noroeste 0 -- -- 59
2020-01-17 08:00:00 10.8 15 Noroeste 24 Noroeste 0 -- -- 53
2020-01-17 07:00:00 11.3 14 Noroeste 23 Noroeste 0 -- -- 53
2020-01-17 06:00:00 11.8 12 Noroeste 17 Noroeste 0 -- -- 52
2020-01-17 05:00:00 12 12 Norte 17 Noroeste 0 -- -- 50
2020-01-17 04:00:00 11.9 13 Norte 18 Noroeste 0 -- -- 51
2020-01-17 03:00:00 11.7 12 Noroeste 18 Noroeste 0 -- -- 55
2020-01-17 02:00:00 11.6 11 Noroeste 15 Noroeste 0 -- -- 61
2020-01-17 01:00:00 12.1 12 Noroeste 16 Noroeste 0 -- -- 65
2020-01-17 00:00:00 12.3 13 Norte 21 Noroeste 0 -- -- 71
2020-01-16 23:00:00 11.9 15 Noroeste 22 Norte 0 -- -- 73
2020-01-16 22:00:00 11.9 9 Norte 18 Noroeste 0 -- -- 85
2020-01-16 21:00:00 11.8 9 Noroeste 13 Noroeste 0 -- -- 86
2020-01-16 20:00:00 11.1 3 Noroeste 7 Norte 0 -- -- 82
2020-01-16 19:00:00 13 2 Noroeste 5 Sudoeste 0 -- -- 82
2020-01-16 18:00:00 15.6 3 Sudoeste 8 Sudoeste 0 -- -- 76
2020-01-16 17:00:00 17.8 4 Sur 11 Sudoeste 0 -- -- 67
2020-01-16 16:00:00 18 7 Sudoeste 14 Sur 0 -- -- 65
2020-01-16 15:00:00 17.3 6 Sudoeste 15 Sur 0 -- -- 65
2020-01-16 14:00:00 16.1 6 Sur 15 Sur 0 -- -- 74
2020-01-16 13:00:00 15.6 6 Sudeste 14 Sur 0 -- -- 72
2020-01-16 12:00:00 14.9 8 Sur 13 Sur 0 -- -- 76
2020-01-16 11:00:00 13.8 4 Este 7 Este 0 -- -- 82
2020-01-16 10:00:00 12.4 2 Sudoeste 5 Noroeste 0 -- -- 89
2020-01-16 09:00:00 9.6 4 Norte 13 Noroeste 0 -- -- 84
2020-01-16 08:00:00 10.4 8 Noroeste 13 Noroeste 0 -- -- 90
2020-01-16 07:00:00 11.1 5 Norte 8 Norte 0 -- -- 91
2020-01-16 06:00:00 11.1 5 Norte 9 Norte 0 -- -- 90
2020-01-16 05:00:00 11.3 5 Norte 8 Norte 0 -- -- 90
2020-01-16 04:00:00 11.3 4 Norte 8 Norte 0 -- -- 88
2020-01-16 03:00:00 11.7 5 Norte 9 Norte 0 -- -- 87
2020-01-16 02:00:00 11.8 5 Norte 11 Nordeste 0 -- -- 86
2020-01-16 01:00:00 11.7 5 Nordeste 11 Nordeste 0 -- -- 78
2020-01-16 00:00:00 11.3 5 Norte 16 Este 0 -- -- 61
2020-01-15 23:00:00 12.3 12 Noroeste 17 Noroeste 0 -- -- 52
2020-01-15 22:00:00 12.3 13 Noroeste 17 Noroeste 0 -- -- 54
2020-01-15 21:00:00 12.4 13 Noroeste 16 Noroeste 0 -- -- 56
2020-01-15 20:00:00 12.9 8 Norte 15 Norte 0 -- -- 53
2020-01-15 19:00:00 13.5 11 Noroeste 14 Noroeste 0 -- -- 52
2020-01-15 18:00:00 15.9 4 Norte 11 Este 0 -- -- 72
2020-01-15 17:00:00 18.1 8 Nordeste 13 Este 0 -- -- 65
2020-01-15 16:00:00 19.8 6 Sudeste 18 Sur 0 -- -- 51
2020-01-15 15:00:00 19.3 12 Sur 19 Oeste 0 -- -- 52
2020-01-15 14:00:00 18.6 8 Sudoeste 18 Oeste 0 -- -- 47
2020-01-15 13:00:00 17.4 8 Noroeste 18 Noroeste 0 -- -- 48
2020-01-15 12:00:00 16.1 8 Noroeste 15 Noroeste 0 -- -- 51
2020-01-15 11:00:00 14.9 6 Norte 14 Norte 0 -- -- 54
2020-01-15 10:00:00 13.1 4 Oeste 22 Norte 0 -- -- 62
2020-01-15 09:00:00 11.9 16 Norte 23 Norte 0 -- -- 64
2020-01-15 08:00:00 11.8 14 Norte 21 Norte 0 -- -- 66
2020-01-15 07:00:00 11.1 9 Norte 17 Norte 0 -- -- 66
2020-01-15 06:00:00 11.4 10 Norte 16 Norte 0 -- -- 63
2020-01-15 05:00:00 11.1 12 Norte 22 Noroeste 0 -- -- 63
2020-01-15 04:00:00 11.4 15 Noroeste 21 Noroeste 0 -- -- 64
2020-01-15 03:00:00 10.7 15 Noroeste 24 Noroeste 0 -- -- 69
2020-01-15 02:00:00 11.1 14 Noroeste 22 Norte 0 -- -- 69
2020-01-15 01:00:00 10.6 11 Norte 19 Norte 0 -- -- 69
2020-01-15 00:00:00 11.2 12 Norte 18 Noroeste 0 -- -- 67
2020-01-14 23:00:00 11.8 6 Norte 18 Noroeste 0 -- -- 66
2020-01-14 22:00:00 11.9 15 Norte 24 Noroeste 0 -- -- 68
2020-01-14 21:00:00 11.9 14 Noroeste 24 Noroeste 0 -- -- 71
2020-01-14 20:00:00 12.5 14 Noroeste 27 Noroeste 0 -- -- 70
2020-01-14 19:00:00 13.3 13 Noroeste 22 Noroeste 0 -- -- 62
2020-01-14 18:00:00 15.3 15 Oeste 23 Noroeste 0 -- -- 55
2020-01-14 17:00:00 17.3 17 Noroeste 25 Oeste 0 -- -- 47
2020-01-14 16:00:00 17.5 13 Noroeste 24 Oeste 0 -- -- 47
2020-01-14 15:00:00 16.7 17 Noroeste 30 Oeste 0 -- -- 48
2020-01-14 14:00:00 15.2 13 Oeste 27 Oeste 0 -- -- 54
2020-01-14 13:00:00 14.7 13 Noroeste 21 Noroeste 0 -- -- 63
2020-01-14 12:00:00 12.9 9 Noroeste 18 Noroeste 0 -- -- 66
2020-01-14 11:00:00 11.3 12 Noroeste 19 Noroeste 0 -- -- 69
2020-01-14 10:00:00 10.1 12 Noroeste 18 Norte 0 -- -- 72
2020-01-14 09:00:00 9.3 10 Norte 19 Noroeste 0 -- -- 77
2020-01-14 08:00:00 8.8 15 Noroeste 19 Noroeste 0 -- -- 78
2020-01-14 07:00:00 8.8 14 Noroeste 19 Noroeste 0 -- -- 78
2020-01-14 06:00:00 8.2 15 Noroeste 22 Noroeste 0 -- -- 81
2020-01-14 05:00:00 9.2 14 Noroeste 18 Noroeste 0 -- -- 78
2020-01-14 04:00:00 9.2 13 Noroeste 20 Noroeste 0 -- -- 79
2020-01-14 03:00:00 9.8 12 Noroeste 17 Noroeste 0 -- -- 79
2020-01-14 02:00:00 9.2 8 Norte 19 Noroeste 0 -- -- 84
2020-01-14 01:00:00 9 5 Norte 13 Norte 0 -- -- 84
2020-01-14 00:00:00 10.1 9 Norte 21 Norte 0 -- -- 84
2020-01-13 23:00:00 9.9 14 Norte 22 Noroeste 0 -- -- 86
2020-01-13 22:00:00 9.9 2 Oeste 14 Noroeste 0 -- -- 88
2020-01-13 21:00:00 10 4 Noroeste 6 Norte 0 -- -- 86
2020-01-13 20:00:00 10.5 0 Calma 5 Noroeste 0 -- -- 83
2020-01-13 19:00:00 12 3 Noroeste 6 Sudoeste 0 -- -- 77
2020-01-13 18:00:00 14 4 Sur 14 Sur 0 -- -- 72
2020-01-13 17:00:00 15.6 9 Sur 17 Sur 0 -- -- 66
2020-01-13 16:00:00 16 8 Sur 17 Sur 0 -- -- 64
2020-01-13 15:00:00 15.6 7 Sur 21 Sur 0 -- -- 63
2020-01-13 14:00:00 14.8 8 Sur 17 Sur 0 -- -- 65
2020-01-13 13:00:00 14.3 8 Sudeste 18 Sudeste 0 -- -- 66
2020-01-13 12:00:00 13.4 11 Sudeste 21 Este 0 -- -- 72
2020-01-13 11:00:00 12.7 11 Sudeste 19 Sudeste 0 -- -- 78
2020-01-13 10:00:00 11.5 2 Nordeste 8 Este 0 -- -- 82
2020-01-13 09:00:00 9.6 2 Este 8 Este 0 -- -- 86
2020-01-13 08:00:00 9.5 3 Norte 8 Este 0 -- -- 88
2020-01-13 07:00:00 9.6 3 Norte 8 Nordeste 0 -- -- 88
2020-01-13 06:00:00 9.9 3 Nordeste 9 Este 0 -- -- 89
2020-01-13 05:00:00 10.1 3 Nordeste 9 Este 0 -- -- 88
2020-01-13 04:00:00 10.3 3 Nordeste 11 Este 0 -- -- 86
2020-01-13 03:00:00 10.3 4 Este 9 Este 0 -- -- 87
2020-01-13 02:00:00 10.1 3 Nordeste 5 Nordeste 0 -- -- 88
2020-01-13 01:00:00 10.2 3 Nordeste 5 Nordeste 0 -- -- 90
2020-01-13 00:00:00 10.3 4 Norte 6 Nordeste 0 -- -- 90
2020-01-12 23:00:00 10.6 5 Nordeste 6 Nordeste 0 -- -- 90
2020-01-12 22:00:00 10.8 4 Nordeste 6 Nordeste 0 -- -- 89
2020-01-12 21:00:00 10.7 4 Norte 5 Nordeste 0 -- -- 87
2020-01-12 20:00:00 11.3 3 Norte 5 Nordeste 0 -- -- 84
2020-01-12 19:00:00 12.5 0 Calma 8 Sur 0 -- -- 79
2020-01-12 18:00:00 14.5 5 Sur 14 Sur 0 -- -- 74
2020-01-12 17:00:00 16.2 8 Sur 17 Sur 0 -- -- 68
2020-01-12 16:00:00 16.9 9 Sur 17 Sur 0 -- -- 61
2020-01-12 15:00:00 16.6 8 Sur 14 Sur 0 -- -- 58
2020-01-12 14:00:00 15.3 7 Sur 17 Sur 0 -- -- 67
2020-01-12 13:00:00 14.9 9 Sur 17 Sur 0 -- -- 71
2020-01-12 12:00:00 14.2 7 Sudeste 14 Sudeste 0 -- -- 74
2020-01-12 11:00:00 13.5 5 Este 14 Sudeste 0 -- -- 77
2020-01-12 10:00:00 12.3 3 Este 9 Este 0 -- -- 79
2020-01-12 09:00:00 10.4 3 Nordeste 8 Este 0 -- -- 82
2020-01-12 08:00:00 10.3 3 Nordeste 9 Este 0 -- -- 84
2020-01-12 07:00:00 10.4 3 Este 10 Este 0 -- -- 84
2020-01-12 06:00:00 10.3 3 Este 8 Este 0 -- -- 85
2020-01-12 05:00:00 10.4 3 Nordeste 9 Este 0 -- -- 85
2020-01-12 04:00:00 10.2 2 Norte 6 Nordeste 0 -- -- 84
2020-01-12 03:00:00 10.5 3 Norte 9 Este 0 -- -- 82
2020-01-12 02:00:00 10.8 3 Este 10 Este 0 -- -- 81
2020-01-12 01:00:00 10.4 3 Norte 8 Nordeste 0 -- -- 81
2020-01-12 00:00:00 10.9 0 Calma 10 Este 0 -- -- 80
2020-01-11 23:00:00 11.4 2 Nordeste 6 Este 0 -- -- 77
2020-01-11 22:00:00 11.8 3 Este 7 Este 0 -- -- 75
2020-01-11 21:00:00 12.1 0 Calma 8 Este 0 -- -- 73
2020-01-11 20:00:00 12.3 3 Este 12 Sudeste 0 -- -- 73
2020-01-11 19:00:00 13.3 8 Sudeste 15 Sudeste 0 -- -- 70
2020-01-11 18:00:00 14.3 9 Sudeste 16 Sudeste 0 -- -- 64
2020-01-11 17:00:00 15.6 10 Sudeste 18 Sur 0 -- -- 60
2020-01-11 16:00:00 16.2 7 Sudeste 19 Sudeste 0 -- -- 59
2020-01-11 15:00:00 16.4 8 Sudeste 17 Sudeste 0 -- -- 58
2020-01-11 14:00:00 15.8 9 Sur 19 Sudeste 0 -- -- 65
2020-01-11 13:00:00 14.9 9 Sudeste 19 Este 0 -- -- 70
2020-01-11 12:00:00 14.5 11 Sudeste 18 Sudeste 0 -- -- 72
2020-01-11 11:00:00 14 9 Sudeste 16 Este 0 -- -- 73
2020-01-11 10:00:00 12.7 3 Este 10 Este 0 -- -- 78
2020-01-11 09:00:00 11.9 2 Nordeste 9 Nordeste 0 -- -- 78
2020-01-11 08:00:00 11.7 3 Norte 9 Nordeste 0 -- -- 78
2020-01-11 07:00:00 11.8 2 Noroeste 5 Este 0 -- -- 76
2020-01-11 06:00:00 12.5 3 Este 13 Este 0 -- -- 72
2020-01-11 05:00:00 12.3 2 Este 8 Nordeste 0 -- -- 69
2020-01-11 04:00:00 11.8 3 Nordeste 11 Este 0 -- -- 66
2020-01-11 03:00:00 11.1 3 Norte 8 Este 0 -- -- 65
2020-01-11 02:00:00 11.2 3 Norte 8 Este 0 -- -- 60
2020-01-11 01:00:00 11.1 2 Nordeste 6 Nordeste 0 -- -- 57
2020-01-11 00:00:00 10.2 3 Norte 6 Noroeste 0 -- -- 63
2020-01-10 23:00:00 10.6 3 Nordeste 10 Noroeste 0 -- -- 60
2020-01-10 22:00:00 10.7 5 Norte 13 Noroeste 0 -- -- 61
2020-01-10 21:00:00 11.4 7 Norte 12 Norte 0 -- -- 62
2020-01-10 20:00:00 12.9 9 Norte 17 Norte 0 -- -- 60
2020-01-10 19:00:00 13.1 10 Norte 20 Norte 0 -- -- 63
2020-01-10 18:00:00 13.4 14 Norte 28 Noroeste 0 -- -- 72
2020-01-10 17:00:00 14.3 21 Noroeste 35 Norte 0 -- -- 69
2020-01-10 16:00:00 16.3 18 Norte 32 Norte 0 -- -- 61
2020-01-10 15:00:00 16.2 15 Noroeste 34 Noroeste 0 -- -- 60
2020-01-10 14:00:00 16 23 Noroeste 35 Noroeste 0 -- -- 61
2020-01-10 13:00:00 15.4 20 Noroeste 31 Noroeste 0 -- -- 64
2020-01-10 12:00:00 14.1 13 Noroeste 24 Noroeste 0 -- -- 74
2020-01-10 11:00:00 13.2 13 Noroeste 22 Noroeste 0 -- -- 72
2020-01-10 10:00:00 11.6 16 Noroeste 25 Noroeste 0 -- -- 78
2020-01-10 09:00:00 10.5 15 Noroeste 23 Noroeste 0 -- -- 78
2020-01-10 08:00:00 10.4 18 Noroeste 27 Noroeste 0 -- -- 79
2020-01-10 07:00:00 10.3 19 Noroeste 31 Noroeste 0 -- -- 80
2020-01-10 06:00:00 10.5 19 Noroeste 27 Noroeste 0 -- -- 77
2020-01-10 05:00:00 10.6 21 Noroeste 27 Noroeste 0 -- -- 76
2020-01-10 04:00:00 10.6 17 Norte 26 Noroeste 0 -- -- 78
2020-01-10 03:00:00 10.3 10 Noroeste 20 Noroeste 0 -- -- 78
2020-01-10 02:00:00 10.2 14 Norte 33 Noroeste 0 -- -- 81
2020-01-10 01:00:00 9.6 21 Noroeste 29 Norte 0 -- -- 86
2020-01-10 00:00:00 10.2 11 Noroeste 23 Norte 0 -- -- 85
2020-01-09 23:00:00 10.5 13 Noroeste 18 Noroeste 0 -- -- 84
2020-01-09 22:00:00 10.6 9 Noroeste 15 Noroeste 0 -- -- 84
2020-01-09 21:00:00 10.6 11 Noroeste 14 Noroeste 0 -- -- 84
2020-01-09 20:00:00 11.3 2 Noroeste 10 Noroeste 0 -- -- 80
2020-01-09 19:00:00 12.4 5 Norte 7 Norte 0 -- -- 77
2020-01-09 18:00:00 14.3 3 Sur 9 Sur 0 -- -- 72
2020-01-09 17:00:00 14.5 4 Sur 12 Este 0 -- -- 70
2020-01-09 16:00:00 15.8 8 Sudeste 20 Sur 0 -- -- 66
2020-01-09 15:00:00 15.8 10 Sur 21 Sudeste 0 -- -- 68
2020-01-09 14:00:00 14.8 10 Sudeste 19 Sudeste 0 -- -- 76
2020-01-09 13:00:00 13.8 9 Sudeste 18 Sudeste 0 -- -- 78
2020-01-09 12:00:00 13.7 7 Sudeste 18 Sudeste 0 -- -- 79
2020-01-09 11:00:00 12.7 8 Sudeste 13 Sudeste 0 -- -- 82
2020-01-09 10:00:00 11.9 2 Sudeste 8 Este 0 -- -- 83
2020-01-09 09:00:00 11.1 2 Este 9 Este 0 -- -- 84
2020-01-09 08:00:00 11 5 Sudeste 10 Este 0 -- -- 83
2020-01-09 07:00:00 11 4 Sudeste 13 Sudeste 0 -- -- 84
2020-01-09 06:00:00 11.1 0 Calma 10 Este 0 -- -- 86
2020-01-09 05:00:00 11.3 4 Sudeste 11 Este 0 -- -- 85
2020-01-09 04:00:00 11.3 6 Sudeste 16 Sudeste 0 -- -- 86
2020-01-09 03:00:00 11.1 4 Este 12 Este 0 -- -- 87
2020-01-09 02:00:00 11.2 5 Este 16 Sudeste 0 -- -- 87
2020-01-09 01:00:00 10.9 5 Este 13 Este 0 -- -- 87
2020-01-09 00:00:00 11.4 4 Sudeste 12 Este 0 -- -- 88
2020-01-08 23:00:00 11.6 3 Este 10 Sudeste 0 -- -- 89
2020-01-08 22:00:00 11.9 2 Este 11 Este 0 -- -- 89
2020-01-08 21:00:00 11.9 3 Sudeste 8 Nordeste 0 -- -- 90
2020-01-08 20:00:00 11.6 3 Nordeste 5 Nordeste 0 -- -- 88
2020-01-08 19:00:00 12.6 3 Nordeste 6 Sudeste 0 -- -- 85
2020-01-08 18:00:00 14.2 4 Sur 9 Sur 0 -- -- 79
2020-01-08 17:00:00 16.4 6 Sur 12 Sur 0 -- -- 73
2020-01-08 16:00:00 16.8 4 Sur 12 Sur 0 -- -- 71
2020-01-08 15:00:00 15.8 6 Sur 13 Sudoeste 0 -- -- 75
2020-01-08 14:00:00 14.8 5 Este 12 Sudeste 0 -- -- 79
2020-01-08 13:00:00 14.4 7 Sur 12 Sudoeste 0 -- -- 80
2020-01-08 12:00:00 14 7 Sudeste 13 Sudeste 0 -- -- 85
2020-01-08 11:00:00 12.7 0 Calma 7 Nordeste 0 -- -- 86
2020-01-08 10:00:00 11.3 0 Calma 5 Noroeste 0 -- -- 95
2020-01-08 09:00:00 8.8 3 Noroeste 10 Noroeste 0 -- -- 93
2020-01-08 08:00:00 8.7 4 Norte 14 Noroeste 0 -- -- 92
2020-01-08 07:00:00 8.4 10 Noroeste 15 Noroeste 0 -- -- 89
2020-01-08 06:00:00 8.3 11 Noroeste 14 Noroeste 0 -- -- 93
2020-01-08 05:00:00 9 3 Norte 9 Norte 0 -- -- 94
2020-01-08 04:00:00 8.6 8 Norte 12 Noroeste 0 -- -- 93
2020-01-08 03:00:00 8.9 10 Noroeste 14 Noroeste 0 -- -- 92
2020-01-08 02:00:00 9.4 9 Noroeste 13 Norte 0 -- -- 93
2020-01-08 01:00:00 10.1 6 Norte 9 Noroeste 0 -- -- 92
2020-01-08 00:00:00 10.8 3 Nordeste 5 Nordeste 0 -- -- 91
2020-01-07 23:00:00 11 4 Nordeste 6 Nordeste 0 -- -- 92
2020-01-07 22:00:00 10.7 4 Nordeste 5 Nordeste 0 -- -- 92
2020-01-07 21:00:00 10.6 4 Norte 5 Norte 0 -- -- 89
2020-01-07 20:00:00 11.2 3 Norte 6 Nordeste 0 -- -- 88
2020-01-07 19:00:00 12.1 3 Nordeste 9 Sudeste 0 -- -- 84
2020-01-07 18:00:00 13.4 7 Sudeste 13 Este 0 -- -- 80
2020-01-07 17:00:00 14.7 9 Sudeste 15 Sudeste 0 -- -- 75
2020-01-07 16:00:00 15.1 9 Sudeste 15 Sudeste 0 -- -- 71
2020-01-07 15:00:00 15 10 Sudeste 22 Sudeste 0 -- -- 73
2020-01-07 14:00:00 14.7 10 Sudeste 23 Sudeste 0 -- -- 74
2020-01-07 13:00:00 14.2 12 Sudeste 23 Sudeste 0 -- -- 79
2020-01-07 12:00:00 13.4 12 Sudeste 22 Sudeste 0 -- -- 79
2020-01-07 11:00:00 12.8 12 Sudeste 21 Sudeste 0 -- -- 80
2020-01-07 10:00:00 11.6 4 Este 11 Este 0 -- -- 80
2020-01-07 09:00:00 10 5 Nordeste 10 Nordeste 0 -- -- 81
2020-01-07 08:00:00 9.3 2 Nordeste 6 Nordeste 0 -- -- 84
2020-01-07 07:00:00 9.4 4 Norte 8 Este 0 -- -- 85
2020-01-07 06:00:00 9.9 3 Nordeste 8 Nordeste 0 -- -- 86
2020-01-07 05:00:00 9.7 2 Nordeste 9 Nordeste 0 -- -- 85
2020-01-07 04:00:00 10 2 Nordeste 9 Este 0 -- -- 81
2020-01-07 03:00:00 10.2 3 Nordeste 7 Nordeste 0 -- -- 86
2020-01-07 02:00:00 10.5 2 Norte 9 Este 0 -- -- 86
2020-01-07 01:00:00 10.9 3 Nordeste 9 Este 0 -- -- 87
2020-01-07 00:00:00 11 3 Nordeste 14 Este 0 -- -- 86
2020-01-06 23:00:00 11 3 Este 10 Sudeste 0 -- -- 87
2020-01-06 22:00:00 11.1 4 Este 13 Este 0 -- -- 87
2020-01-06 21:00:00 11.1 3 Este 9 Este 0 -- -- 86
2020-01-06 20:00:00 11.7 3 Nordeste 14 Sudeste 0 -- -- 83
2020-01-06 19:00:00 12.6 8 Sudeste 15 Sudeste 0 -- -- 81
2020-01-06 18:00:00 13.4 9 Sudeste 21 Sudeste 0 -- -- 77
2020-01-06 17:00:00 15.1 10 Sudeste 21 Sudeste 0 -- -- 69
2020-01-06 16:00:00 15.3 12 Sudeste 23 Sur 0 -- -- 68
2020-01-06 15:00:00 15.1 13 Sudeste 24 Sudeste 0 -- -- 71
2020-01-06 14:00:00 14.9 13 Sudeste 26 Sudeste 0 -- -- 71
2020-01-06 13:00:00 14.4 15 Sudeste 26 Sudeste 0 -- -- 68
2020-01-06 12:00:00 14 15 Sudeste 27 Sudeste 0 -- -- 71
2020-01-06 11:00:00 13.5 15 Sudeste 26 Este 0 -- -- 73
2020-01-06 10:00:00 13 9 Sudeste 21 Sudeste 0 -- -- 73